Terminal Aerodrome Forecast
Issued by NWS

Home | Current Version | Previous Version | Text Only | Print | Product List | Glossary On
Versions: 1 2 3 4 5 6 7 8 9 10 11 12 13 14 15 16 17 18
935
FTUS46 KSEW 091732
TAFBFI
TAF
KBFI 091732Z 0918/1018 13008KT P6SM -RA BKN025 OVC035
      TEMPO 0918/0920 5SM -RA BR OVC022
     FM092100 15008KT P6SM -RA BKN025 OVC040
     FM100400 16008KT 5SM -RA BR OVC020
     FM100900 18014G22KT P6SM -SHRA BKN025 OVC040
     FM101500 15006KT P6SM SCT025 BKN035 OVC050=

USA.gov is the U.S. government's official web portal to all federal, state and local government web resources and services.